UPSVAC Airport Information Service

Cologne Bonn Airport

ICAO: EDDK Country: Germany
Latitude: 50.866 Longitude: 7.143
Latest Arrival : UPS350 (UAAA-EDDK) Latest Departure : UPS1180 (EDDK-VTBS)


WX CaptureLIVE
Data provided by noaa.gov | Fetched at 10:39:29

METAR : EDDK 271020Z 15009KT 9999 -DZ FEW007 BKN021 01/01 Q1012 TEMPO 4000 BKN014

TAF : EDDK 270500Z 2706/2812 16007KT 9999 BKN030 TEMPO 2706/2711 3500 -SNRA BR BKN012 PROB30 TEMPO 2707/2710 2000 SN BKN008 BECMG 2712/2715 24005KT BKN012 TEMPO 2718/2812 BKN008 BECMG 2802/2805 12006KT TEMPO 2807/2812 3500 RA BR


Runway Data for EDDK
Data provided by openaviationdata.com

Runway ID Mag Var Hdg Length Elevation Surface ILS Freq ILS Id ILS Slope
7 0 64° 8050 ft 254 ft Concrete -- -- --
14L 0 137° 12496 ft 254 ft Asphalt 110.9 IKES 3
14R 0 137° 6101 ft 254 ft Concrete -- -- --
25 0 244° 8050 ft 254 ft Concrete 109.1 IKOW 3
32L 0 317° 6101 ft 254 ft Concrete -- -- --
32R 0 317° 12496 ft 254 ft Asphalt 109.7 IKEN 3

Cologne Bonn Airport, Germany
Use only for reference purposes



Not for navigational purposes.